Main page
METAR-TAF:

METAR-TAF

Airports :

El Dorado International Airport

Bogotá, Colombia

latitude: 04-43N, longitude: 074-09W, elevation: 2547 m

Current weather observation

The report was made 26 minutes ago, at 08:00 UTC
Wind 2 kt from variable directions
Temperature 9°C
Humidity 100%
Pressure 1027 hPa
Visibility 10 km or more

METAR: SKBO 240800Z VRB02KT 9999 NSC 09/09 Q1027 NOSIG RMK A3033

Time: 03:26 (08:26 UTC)

Forecast

The report was made 3 hours and 56 minutes ago, at 04:30 UTC
Forecast valid from 24 at 06 UTC to 25 at 06 UTC
Wind 2 kt from variable directions
Visibility 10 km or more
Few clouds at a height of 1500 ft
Broken clouds at a height of 8000 ft
Temporary
from 24 at 08 UTC to 24 at 12 UTC
drizzle
Becoming
from 24 at 15 UTC to 24 at 17 UTC
Wind 10 kt from the Southeast
Scattered clouds at a height of 2000 ft

TAF: SKBO 240430Z 2406/2506 VRB02KT 9999 FEW015 BKN080 TEMPO 2408/2412 DZ BECMG 2415/2417 14010KT SCT020 TX20/2418Z TN09/2410Z

Weather observations and forecasts of more than 4000 airports (METAR and TAF reports).

The available stations are represented by yellow and red dots on the map.

Hover mouse over dot to see the name of the station.

Then click to see weather observations and forecasts.

To change the map : click on the green buttons with a black cross to zoom in, on the green button with a dash to zoom out, or on the green arrows for adjacent maps.


METAR-TAF: